This is the latest recevied weather packets stored in our database for station/object DA6VK-10. If no packets are shown the sender has not sent any weather packets the latest 10 day(s).
| Time | Temp. | Humidity | Pressure | Rain* | Wind** | Luminosity | Snow |
|---|---|---|---|---|---|---|---|
| 1777649375 | 28.89° C | 12% | 1024.4 hPa | - | - | - | - |
| 1777648474 | 28.89° C | 14% | 1024.5 hPa | - | - | - | - |
| 1777647573 | 28.33° C | 14% | 1024.7 hPa | - | - | - | - |
| 1777646672 | 28.33° C | 14% | 1024.8 hPa | - | - | - | - |
| 1777645771 | 27.78° C | 14% | 1025 hPa | - | - | - | - |
| 1777641267 | 26.11° C | 16% | 1025.6 hPa | - | - | - | - |
| 1777640366 | 24.44° C | 18% | 1025.8 hPa | - | - | - | - |
| 1777639466 | 23.89° C | 17% | 1026.1 hPa | - | - | - | - |
| 1777638565 | 23.33° C | 18% | 1026.2 hPa | - | - | - | - |
| 1777637664 | 22.78° C | 19% | 1026.3 hPa | - | - | - | - |
| 1777636763 | 22.78° C | 19% | 1026.4 hPa | - | - | - | - |
| 1777634961 | 20° C | 20% | 1026.6 hPa | - | - | - | - |
| 1777633160 | 19.44° C | 21% | 1026.8 hPa | - | - | - | - |
| 1777625953 | 16.67° C | 22% | 1027.4 hPa | - | - | - | - |
| 1777625052 | 16.67° C | 21% | 1027.5 hPa | - | - | - | - |
| 1777622350 | 15° C | 24% | 1027.6 hPa | - | - | - | - |
| 1777620548 | 14.44° C | 26% | 1027.6 hPa | - | - | - | - |
| 1777617844 | 13.33° C | 32% | 1027.4 hPa | - | - | - | - |
| 1777616043 | 11.67° C | 36% | 1027.6 hPa | - | - | - | - |
| 1777615142 | 11.67° C | 36% | 1027.6 hPa | - | - | - | - |
| 1777614241 | 11.11° C | 36% | 1027.7 hPa | - | - | - | - |
| 1777613340 | 11.11° C | 36% | 1027.8 hPa | - | - | - | - |
| 1777612439 | 11.11° C | 36% | 1027.7 hPa | - | - | - | - |
| 1777611539 | 11.11° C | 37% | 1027.7 hPa | - | - | - | - |
| 1777610638 | 10.56° C | 37% | 1027.6 hPa | - | - | - | - |
* Rain since midnight (hover to see other rain measurements)
** Current wind speed in m/s (hover to see current wind gust speed)